sensor_id;sensor_type;location;lat;lon;timestamp;P1;durP1;ratioP1;P2;durP2;ratioP2
47804;SDS011;33568;45.286;9.900;2022-09-28T00:00:38;6.38;;;4.43;;
47804;SDS011;33568;45.286;9.900;2022-09-28T00:03:07;8.88;;;4.15;;
47804;SDS011;33568;45.286;9.900;2022-09-28T00:05:34;7.10;;;4.10;;
47804;SDS011;33568;45.286;9.900;2022-09-28T00:10:26;5.60;;;4.65;;
47804;SDS011;33568;45.286;9.900;2022-09-28T00:15:22;9.55;;;5.55;;
47804;SDS011;33568;45.286;9.900;2022-09-28T00:17:49;6.97;;;5.07;;
47804;SDS011;33568;45.286;9.900;2022-09-28T00:20:15;13.90;;;7.65;;
47804;SDS011;33568;45.286;9.900;2022-09-28T00:22:42;6.60;;;5.90;;
47804;SDS011;33568;45.286;9.900;2022-09-28T00:25:09;7.88;;;5.85;;
47804;SDS011;33568;45.286;9.900;2022-09-28T00:30:01;8.68;;;7.47;;
47804;SDS011;33568;45.286;9.900;2022-09-28T00:32:29;8.40;;;7.53;;
47804;SDS011;33568;45.286;9.900;2022-09-28T00:37:22;18.10;;;11.05;;
47804;SDS011;33568;45.286;9.900;2022-09-28T00:39:48;12.63;;;11.32;;
47804;SDS011;33568;45.286;9.900;2022-09-28T00:42:16;13.13;;;11.82;;
47804;SDS011;33568;45.286;9.900;2022-09-28T00:44:53;12.73;;;11.35;;
47804;SDS011;33568;45.286;9.900;2022-09-28T00:50:07;10.30;;;9.07;;
47804;SDS011;33568;45.286;9.900;2022-09-28T00:55:25;13.10;;;9.27;;
47804;SDS011;33568;45.286;9.900;2022-09-28T00:57:59;12.38;;;9.95;;
47804;SDS011;33568;45.286;9.900;2022-09-28T01:00:30;10.80;;;9.70;;
47804;SDS011;33568;45.286;9.900;2022-09-28T01:02:56;11.98;;;10.07;;
47804;SDS011;33568;45.286;9.900;2022-09-28T01:05:24;10.82;;;8.77;;
47804;SDS011;33568;45.286;9.900;2022-09-28T01:07:52;11.90;;;9.65;;
47804;SDS011;33568;45.286;9.900;2022-09-28T01:10:21;11.13;;;9.90;;
47804;SDS011;33568;45.286;9.900;2022-09-28T01:12:47;10.40;;;9.18;;
47804;SDS011;33568;45.286;9.900;2022-09-28T01:15:16;10.63;;;8.95;;
47804;SDS011;33568;45.286;9.900;2022-09-28T01:20:40;10.50;;;8.65;;
47804;SDS011;33568;45.286;9.900;2022-09-28T01:29:19;10.68;;;6.90;;
47804;SDS011;33568;45.286;9.900;2022-09-28T01:31:55;10.43;;;7.93;;
47804;SDS011;33568;45.286;9.900;2022-09-28T01:34:45;8.80;;;7.13;;
47804;SDS011;33568;45.286;9.900;2022-09-28T01:37:34;9.77;;;8.02;;
47804;SDS011;33568;45.286;9.900;2022-09-28T01:40:09;14.00;;;9.52;;
47804;SDS011;33568;45.286;9.900;2022-09-28T01:42:39;8.70;;;7.80;;
47804;SDS011;33568;45.286;9.900;2022-09-28T01:45:11;11.40;;;7.47;;
47804;SDS011;33568;45.286;9.900;2022-09-28T01:47:42;8.98;;;7.60;;
47804;SDS011;33568;45.286;9.900;2022-09-28T01:50:13;12.63;;;7.57;;
47804;SDS011;33568;45.286;9.900;2022-09-28T01:52:44;10.95;;;7.60;;
47804;SDS011;33568;45.286;9.900;2022-09-28T01:58:03;8.27;;;6.75;;
47804;SDS011;33568;45.286;9.900;2022-09-28T02:01:00;9.98;;;7.53;;
47804;SDS011;33568;45.286;9.900;2022-09-28T02:03:46;8.77;;;6.85;;
47804;SDS011;33568;45.286;9.900;2022-09-28T02:06:19;10.63;;;8.20;;
47804;SDS011;33568;45.286;9.900;2022-09-28T02:08:53;6.68;;;5.97;;
47804;SDS011;33568;45.286;9.900;2022-09-28T02:11:37;7.70;;;6.60;;
47804;SDS011;33568;45.286;9.900;2022-09-28T02:14:08;10.77;;;7.63;;
47804;SDS011;33568;45.286;9.900;2022-09-28T02:16:38;10.02;;;7.38;;
47804;SDS011;33568;45.286;9.900;2022-09-28T02:19:07;10.73;;;6.55;;
47804;SDS011;33568;45.286;9.900;2022-09-28T02:24:27;8.27;;;6.20;;
47804;SDS011;33568;45.286;9.900;2022-09-28T02:27:13;7.03;;;5.93;;
47804;SDS011;33568;45.286;9.900;2022-09-28T02:29:46;7.90;;;5.93;;
47804;SDS011;33568;45.286;9.900;2022-09-28T02:32:14;7.30;;;6.00;;
47804;SDS011;33568;45.286;9.900;2022-09-28T02:34:42;6.80;;;5.85;;
47804;SDS011;33568;45.286;9.900;2022-09-28T02:39:36;11.57;;;6.72;;
47804;SDS011;33568;45.286;9.900;2022-09-28T02:45:21;7.00;;;5.95;;
47804;SDS011;33568;45.286;9.900;2022-09-28T02:53:15;7.03;;;6.32;;
47804;SDS011;33568;45.286;9.900;2022-09-28T02:56:28;6.45;;;5.65;;
47804;SDS011;33568;45.286;9.900;2022-09-28T03:07:28;9.70;;;6.55;;
47804;SDS011;33568;45.286;9.900;2022-09-28T03:12:50;6.97;;;5.47;;
47804;SDS011;33568;45.286;9.900;2022-09-28T03:17:45;7.38;;;5.65;;
47804;SDS011;33568;45.286;9.900;2022-09-28T03:20:12;7.18;;;5.35;;
47804;SDS011;33568;45.286;9.900;2022-09-28T03:22:39;8.68;;;5.95;;
47804;SDS011;33568;45.286;9.900;2022-09-28T03:27:34;6.38;;;4.18;;
47804;SDS011;33568;45.286;9.900;2022-09-28T03:30:00;5.35;;;4.22;;
47804;SDS011;33568;45.286;9.900;2022-09-28T03:32:28;4.80;;;4.20;;
47804;SDS011;33568;45.286;9.900;2022-09-28T03:34:55;4.88;;;3.97;;
47804;SDS011;33568;45.286;9.900;2022-09-28T03:37:21;4.95;;;4.05;;
47804;SDS011;33568;45.286;9.900;2022-09-28T03:42:14;8.35;;;4.25;;
47804;SDS011;33568;45.286;9.900;2022-09-28T03:44:44;4.82;;;3.65;;
47804;SDS011;33568;45.286;9.900;2022-09-28T03:47:11;6.78;;;3.47;;
47804;SDS011;33568;45.286;9.900;2022-09-28T03:49:38;4.93;;;3.85;;
47804;SDS011;33568;45.286;9.900;2022-09-28T03:52:05;4.20;;;3.80;;
47804;SDS011;33568;45.286;9.900;2022-09-28T03:56:57;3.47;;;3.17;;
47804;SDS011;33568;45.286;9.900;2022-09-28T03:59:24;5.45;;;2.90;;
47804;SDS011;33568;45.286;9.900;2022-09-28T04:01:50;5.97;;;3.22;;
47804;SDS011;33568;45.286;9.900;2022-09-28T04:04:17;3.35;;;2.78;;
47804;SDS011;33568;45.286;9.900;2022-09-28T04:06:44;3.65;;;2.78;;
47804;SDS011;33568;45.286;9.900;2022-09-28T04:11:37;3.75;;;2.90;;
47804;SDS011;33568;45.286;9.900;2022-09-28T04:16:30;3.43;;;2.93;;
47804;SDS011;33568;45.286;9.900;2022-09-28T04:19:12;3.25;;;2.58;;
47804;SDS011;33568;45.286;9.900;2022-09-28T04:22:01;2.45;;;2.25;;
47804;SDS011;33568;45.286;9.900;2022-09-28T04:24:29;7.07;;;2.95;;
47804;SDS011;33568;45.286;9.900;2022-09-28T04:26:56;3.25;;;2.17;;
47804;SDS011;33568;45.286;9.900;2022-09-28T04:29:42;2.78;;;2.22;;
47804;SDS011;33568;45.286;9.900;2022-09-28T04:32:10;3.28;;;2.50;;
47804;SDS011;33568;45.286;9.900;2022-09-28T04:34:39;5.68;;;2.65;;
47804;SDS011;33568;45.286;9.900;2022-09-28T04:37:06;2.97;;;2.53;;
47804;SDS011;33568;45.286;9.900;2022-09-28T04:41:58;4.65;;;2.20;;
47804;SDS011;33568;45.286;9.900;2022-09-28T04:44:27;4.43;;;2.85;;
47804;SDS011;33568;45.286;9.900;2022-09-28T04:46:58;2.97;;;2.22;;
47804;SDS011;33568;45.286;9.900;2022-09-28T04:49:27;5.32;;;2.38;;
47804;SDS011;33568;45.286;9.900;2022-09-28T04:52:08;4.28;;;3.40;;
47804;SDS011;33568;45.286;9.900;2022-09-28T04:54:35;3.67;;;2.95;;
47804;SDS011;33568;45.286;9.900;2022-09-28T04:57:01;4.10;;;3.15;;
47804;SDS011;33568;45.286;9.900;2022-09-28T04:59:30;5.18;;;3.10;;
47804;SDS011;33568;45.286;9.900;2022-09-28T05:01:58;4.47;;;3.38;;
47804;SDS011;33568;45.286;9.900;2022-09-28T05:04:53;5.63;;;3.17;;
47804;SDS011;33568;45.286;9.900;2022-09-28T05:07:36;4.50;;;2.70;;
47804;SDS011;33568;45.286;9.900;2022-09-28T05:10:05;2.40;;;2.15;;
47804;SDS011;33568;45.286;9.900;2022-09-28T05:12:32;3.28;;;2.50;;
47804;SDS011;33568;45.286;9.900;2022-09-28T05:14:59;4.07;;;2.70;;
47804;SDS011;33568;45.286;9.900;2022-09-28T05:17:26;4.07;;;2.50;;
47804;SDS011;33568;45.286;9.900;2022-09-28T05:19:59;3.58;;;2.72;;
47804;SDS011;33568;45.286;9.900;2022-09-28T05:22:27;3.35;;;2.30;;
47804;SDS011;33568;45.286;9.900;2022-09-28T05:24:54;4.03;;;2.65;;
47804;SDS011;33568;45.286;9.900;2022-09-28T05:27:23;2.72;;;2.45;;
47804;SDS011;33568;45.286;9.900;2022-09-28T05:29:59;4.07;;;2.10;;
47804;SDS011;33568;45.286;9.900;2022-09-28T05:32:43;2.78;;;2.03;;
47804;SDS011;33568;45.286;9.900;2022-09-28T05:35:17;2.45;;;2.15;;
47804;SDS011;33568;45.286;9.900;2022-09-28T05:37:46;2.78;;;2.03;;
47804;SDS011;33568;45.286;9.900;2022-09-28T05:40:12;4.93;;;2.40;;
47804;SDS011;33568;45.286;9.900;2022-09-28T05:42:39;2.30;;;2.10;;
47804;SDS011;33568;45.286;9.900;2022-09-28T05:45:07;3.90;;;2.42;;
47804;SDS011;33568;45.286;9.900;2022-09-28T05:47:39;4.22;;;2.30;;
47804;SDS011;33568;45.286;9.900;2022-09-28T05:50:09;5.05;;;2.50;;
47804;SDS011;33568;45.286;9.900;2022-09-28T05:52:37;3.17;;;2.33;;
47804;SDS011;33568;45.286;9.900;2022-09-28T05:55:05;2.72;;;2.30;;
47804;SDS011;33568;45.286;9.900;2022-09-28T05:57:33;3.88;;;2.30;;
47804;SDS011;33568;45.286;9.900;2022-09-28T06:00:00;3.85;;;1.95;;
47804;SDS011;33568;45.286;9.900;2022-09-28T06:02:38;2.20;;;1.92;;
47804;SDS011;33568;45.286;9.900;2022-09-28T06:05:07;3.35;;;2.08;;
47804;SDS011;33568;45.286;9.900;2022-09-28T06:07:33;4.07;;;2.13;;
47804;SDS011;33568;45.286;9.900;2022-09-28T06:10:01;5.20;;;2.17;;
47804;SDS011;33568;45.286;9.900;2022-09-28T06:12:38;2.97;;;2.67;;
47804;SDS011;33568;45.286;9.900;2022-09-28T06:15:11;4.70;;;2.10;;
47804;SDS011;33568;45.286;9.900;2022-09-28T06:17:38;3.75;;;2.10;;
47804;SDS011;33568;45.286;9.900;2022-09-28T06:20:41;3.45;;;2.00;;
47804;SDS011;33568;45.286;9.900;2022-09-28T06:23:13;3.65;;;2.50;;
47804;SDS011;33568;45.286;9.900;2022-09-28T06:25:40;3.38;;;2.30;;
47804;SDS011;33568;45.286;9.900;2022-09-28T06:30:35;3.40;;;2.35;;
47804;SDS011;33568;45.286;9.900;2022-09-28T06:33:05;5.22;;;2.47;;
47804;SDS011;33568;45.286;9.900;2022-09-28T06:35:33;2.42;;;2.17;;
47804;SDS011;33568;45.286;9.900;2022-09-28T06:38:00;4.40;;;2.47;;
47804;SDS011;33568;45.286;9.900;2022-09-28T06:42:57;2.58;;;2.20;;
47804;SDS011;33568;45.286;9.900;2022-09-28T06:45:48;3.70;;;2.08;;
47804;SDS011;33568;45.286;9.900;2022-09-28T06:48:24;2.65;;;2.40;;
47804;SDS011;33568;45.286;9.900;2022-09-28T06:50:50;2.03;;;1.80;;
47804;SDS011;33568;45.286;9.900;2022-09-28T06:53:27;3.42;;;2.40;;
47804;SDS011;33568;45.286;9.900;2022-09-28T06:56:17;3.15;;;2.00;;
47804;SDS011;33568;45.286;9.900;2022-09-28T06:58:46;3.20;;;2.80;;
47804;SDS011;33568;45.286;9.900;2022-09-28T07:01:13;3.25;;;2.25;;
47804;SDS011;33568;45.286;9.900;2022-09-28T07:04:00;6.85;;;2.17;;
47804;SDS011;33568;45.286;9.900;2022-09-28T07:06:45;7.57;;;2.42;;
47804;SDS011;33568;45.286;9.900;2022-09-28T07:09:51;4.47;;;2.78;;
47804;SDS011;33568;45.286;9.900;2022-09-28T07:12:26;7.18;;;2.38;;
47804;SDS011;33568;45.286;9.900;2022-09-28T07:14:57;8.75;;;2.95;;
47804;SDS011;33568;45.286;9.900;2022-09-28T07:17:26;5.13;;;2.35;;
47804;SDS011;33568;45.286;9.900;2022-09-28T07:19:54;6.10;;;2.78;;
47804;SDS011;33568;45.286;9.900;2022-09-28T07:22:23;6.05;;;2.00;;
47804;SDS011;33568;45.286;9.900;2022-09-28T07:24:51;6.30;;;2.40;;
47804;SDS011;33568;45.286;9.900;2022-09-28T07:27:44;3.40;;;2.33;;
47804;SDS011;33568;45.286;9.900;2022-09-28T07:30:35;2.28;;;1.95;;
47804;SDS011;33568;45.286;9.900;2022-09-28T07:33:05;3.35;;;2.25;;
47804;SDS011;33568;45.286;9.900;2022-09-28T07:35:37;3.03;;;2.17;;
47804;SDS011;33568;45.286;9.900;2022-09-28T07:38:07;2.25;;;1.88;;
47804;SDS011;33568;45.286;9.900;2022-09-28T07:40:36;4.20;;;1.75;;
47804;SDS011;33568;45.286;9.900;2022-09-28T07:43:21;3.65;;;2.17;;
47804;SDS011;33568;45.286;9.900;2022-09-28T07:45:51;7.10;;;2.80;;
47804;SDS011;33568;45.286;9.900;2022-09-28T07:48:19;5.25;;;2.47;;
47804;SDS011;33568;45.286;9.900;2022-09-28T07:51:06;6.93;;;2.15;;
47804;SDS011;33568;45.286;9.900;2022-09-28T07:53:44;2.58;;;2.33;;
47804;SDS011;33568;45.286;9.900;2022-09-28T07:56:22;4.53;;;2.22;;
47804;SDS011;33568;45.286;9.900;2022-09-28T07:59:02;2.58;;;1.92;;
47804;SDS011;33568;45.286;9.900;2022-09-28T08:01:47;3.95;;;2.03;;
47804;SDS011;33568;45.286;9.900;2022-09-28T08:04:16;2.75;;;2.13;;
47804;SDS011;33568;45.286;9.900;2022-09-28T08:06:45;3.35;;;2.40;;
47804;SDS011;33568;45.286;9.900;2022-09-28T08:09:13;3.13;;;2.17;;
47804;SDS011;33568;45.286;9.900;2022-09-28T08:11:58;3.95;;;2.92;;
47804;SDS011;33568;45.286;9.900;2022-09-28T08:14:53;7.57;;;2.00;;
47804;SDS011;33568;45.286;9.900;2022-09-28T08:17:35;5.00;;;2.17;;
47804;SDS011;33568;45.286;9.900;2022-09-28T08:20:06;3.00;;;2.20;;
47804;SDS011;33568;45.286;9.900;2022-09-28T08:22:51;2.47;;;1.70;;
47804;SDS011;33568;45.286;9.900;2022-09-28T08:25:19;3.30;;;1.95;;
47804;SDS011;33568;45.286;9.900;2022-09-28T08:27:45;2.58;;;2.08;;
47804;SDS011;33568;45.286;9.900;2022-09-28T08:30:13;5.43;;;1.90;;
47804;SDS011;33568;45.286;9.900;2022-09-28T08:32:58;1.98;;;1.85;;
47804;SDS011;33568;45.286;9.900;2022-09-28T08:35:42;8.98;;;2.13;;
47804;SDS011;33568;45.286;9.900;2022-09-28T08:38:24;2.40;;;1.40;;
47804;SDS011;33568;45.286;9.900;2022-09-28T08:41:00;2.45;;;1.70;;
47804;SDS011;33568;45.286;9.900;2022-09-28T08:46:36;8.40;;;2.93;;
47804;SDS011;33568;45.286;9.900;2022-09-28T08:49:38;6.25;;;2.15;;
47804;SDS011;33568;45.286;9.900;2022-09-28T08:52:33;5.15;;;2.25;;
47804;SDS011;33568;45.286;9.900;2022-09-28T08:55:25;2.03;;;1.70;;
47804;SDS011;33568;45.286;9.900;2022-09-28T09:00:39;9.63;;;2.67;;
47804;SDS011;33568;45.286;9.900;2022-09-28T09:03:13;15.35;;;2.17;;
47804;SDS011;33568;45.286;9.900;2022-09-28T09:19:53;5.38;;;2.55;;
47804;SDS011;33568;45.286;9.900;2022-09-28T09:22:43;11.45;;;2.95;;
47804;SDS011;33568;45.286;9.900;2022-09-28T09:31:05;7.75;;;2.58;;
47804;SDS011;33568;45.286;9.900;2022-09-28T09:50:25;7.78;;;2.17;;
47804;SDS011;33568;45.286;9.900;2022-09-28T09:53:13;3.28;;;1.80;;
47804;SDS011;33568;45.286;9.900;2022-09-28T09:55:48;7.10;;;2.33;;
47804;SDS011;33568;45.286;9.900;2022-09-28T09:58:49;4.00;;;2.67;;
47804;SDS011;33568;45.286;9.900;2022-09-28T10:01:29;5.43;;;2.30;;
47804;SDS011;33568;45.286;9.900;2022-09-28T10:04:21;8.23;;;2.20;;
47804;SDS011;33568;45.286;9.900;2022-09-28T10:06:58;9.68;;;2.42;;
47804;SDS011;33568;45.286;9.900;2022-09-28T10:17:14;5.45;;;2.22;;
47804;SDS011;33568;45.286;9.900;2022-09-28T10:20:26;9.30;;;2.30;;
47804;SDS011;33568;45.286;9.900;2022-09-28T10:23:11;7.32;;;2.20;;
47804;SDS011;33568;45.286;9.900;2022-09-28T10:26:08;8.32;;;2.42;;
47804;SDS011;33568;45.286;9.900;2022-09-28T10:28:52;4.35;;;2.22;;
47804;SDS011;33568;45.286;9.900;2022-09-28T10:34:17;6.30;;;2.38;;
47804;SDS011;33568;45.286;9.900;2022-09-28T10:36:54;3.13;;;1.80;;
47804;SDS011;33568;45.286;9.900;2022-09-28T10:39:29;10.25;;;2.30;;
47804;SDS011;33568;45.286;9.900;2022-09-28T10:42:10;5.95;;;2.40;;
47804;SDS011;33568;45.286;9.900;2022-09-28T10:44:48;9.82;;;3.35;;
47804;SDS011;33568;45.286;9.900;2022-09-28T10:47:30;5.88;;;2.53;;
47804;SDS011;33568;45.286;9.900;2022-09-28T10:49:58;7.72;;;2.70;;
47804;SDS011;33568;45.286;9.900;2022-09-28T10:52:34;5.07;;;2.80;;
47804;SDS011;33568;45.286;9.900;2022-09-28T10:57:46;4.68;;;2.40;;
47804;SDS011;33568;45.286;9.900;2022-09-28T11:00:36;8.13;;;2.75;;
47804;SDS011;33568;45.286;9.900;2022-09-28T11:03:24;5.22;;;2.60;;
47804;SDS011;33568;45.286;9.900;2022-09-28T11:05:59;8.48;;;3.10;;
47804;SDS011;33568;45.286;9.900;2022-09-28T11:08:28;7.65;;;2.70;;
47804;SDS011;33568;45.286;9.900;2022-09-28T11:11:01;8.45;;;2.88;;
47804;SDS011;33568;45.286;9.900;2022-09-28T11:14:23;7.70;;;2.75;;
47804;SDS011;33568;45.286;9.900;2022-09-28T11:16:42;10.80;;;2.97;;
47804;SDS011;33568;45.286;9.900;2022-09-28T11:21:47;10.77;;;2.72;;
47804;SDS011;33568;45.286;9.900;2022-09-28T11:26:43;7.13;;;3.08;;
47804;SDS011;33568;45.286;9.900;2022-09-28T11:29:23;7.57;;;2.97;;
47804;SDS011;33568;45.286;9.900;2022-09-28T11:32:25;5.57;;;2.75;;
47804;SDS011;33568;45.286;9.900;2022-09-28T11:35:18;10.85;;;3.20;;
47804;SDS011;33568;45.286;9.900;2022-09-28T11:51:56;5.85;;;2.40;;
47804;SDS011;33568;45.286;9.900;2022-09-28T11:54:30;5.18;;;3.25;;
47804;SDS011;33568;45.286;9.900;2022-09-28T11:57:04;8.63;;;2.50;;
47804;SDS011;33568;45.286;9.900;2022-09-28T12:02:23;8.40;;;3.35;;
47804;SDS011;33568;45.286;9.900;2022-09-28T12:05:12;7.45;;;3.13;;
47804;SDS011;33568;45.286;9.900;2022-09-28T12:07:43;6.38;;;3.33;;
47804;SDS011;33568;45.286;9.900;2022-09-28T12:13:46;9.93;;;3.35;;
47804;SDS011;33568;45.286;9.900;2022-09-28T12:16:25;8.48;;;2.80;;
47804;SDS011;33568;45.286;9.900;2022-09-28T12:19:07;7.57;;;2.85;;
47804;SDS011;33568;45.286;9.900;2022-09-28T12:21:50;6.78;;;3.90;;
47804;SDS011;33568;45.286;9.900;2022-09-28T12:27:06;6.13;;;3.30;;
47804;SDS011;33568;45.286;9.900;2022-09-28T12:29:45;10.55;;;3.67;;
47804;SDS011;33568;45.286;9.900;2022-09-28T12:32:32;9.77;;;3.60;;
47804;SDS011;33568;45.286;9.900;2022-09-28T12:35:16;5.88;;;2.55;;
47804;SDS011;33568;45.286;9.900;2022-09-28T12:41:17;11.63;;;3.67;;
47804;SDS011;33568;45.286;9.900;2022-09-28T12:47:02;13.20;;;3.65;;
47804;SDS011;33568;45.286;9.900;2022-09-28T12:52:41;5.88;;;2.25;;
47804;SDS011;33568;45.286;9.900;2022-09-28T12:55:51;4.75;;;2.72;;
47804;SDS011;33568;45.286;9.900;2022-09-28T12:58:31;16.55;;;3.78;;
47804;SDS011;33568;45.286;9.900;2022-09-28T13:09:25;6.72;;;2.40;;
47804;SDS011;33568;45.286;9.900;2022-09-28T13:19:56;11.48;;;3.65;;
47804;SDS011;33568;45.286;9.900;2022-09-28T13:25:26;6.95;;;2.58;;
47804;SDS011;33568;45.286;9.900;2022-09-28T13:28:03;7.13;;;3.20;;
47804;SDS011;33568;45.286;9.900;2022-09-28T13:30:34;7.85;;;2.35;;
47804;SDS011;33568;45.286;9.900;2022-09-28T13:33:04;4.47;;;2.05;;
47804;SDS011;33568;45.286;9.900;2022-09-28T13:35:40;9.60;;;3.05;;
47804;SDS011;33568;45.286;9.900;2022-09-28T13:43:33;12.68;;;4.25;;
47804;SDS011;33568;45.286;9.900;2022-09-28T13:49:23;6.82;;;3.17;;
47804;SDS011;33568;45.286;9.900;2022-09-28T13:57:30;15.05;;;3.80;;
47804;SDS011;33568;45.286;9.900;2022-09-28T14:00:24;8.27;;;3.45;;
47804;SDS011;33568;45.286;9.900;2022-09-28T14:08:37;9.63;;;3.08;;
47804;SDS011;33568;45.286;9.900;2022-09-28T14:16:36;8.60;;;3.60;;
47804;SDS011;33568;45.286;9.900;2022-09-28T14:19:08;6.55;;;2.90;;
47804;SDS011;33568;45.286;9.900;2022-09-28T14:30:22;9.17;;;3.80;;
47804;SDS011;33568;45.286;9.900;2022-09-28T14:32:52;18.50;;;4.22;;
47804;SDS011;33568;45.286;9.900;2022-09-28T14:37:58;9.15;;;3.53;;
47804;SDS011;33568;45.286;9.900;2022-09-28T14:40:56;10.73;;;4.65;;
47804;SDS011;33568;45.286;9.900;2022-09-28T14:54:00;12.25;;;4.25;;
47804;SDS011;33568;45.286;9.900;2022-09-28T14:59:16;10.25;;;3.70;;
47804;SDS011;33568;45.286;9.900;2022-09-28T15:02:34;15.20;;;3.33;;
47804;SDS011;33568;45.286;9.900;2022-09-28T15:07:42;8.65;;;4.03;;
47804;SDS011;33568;45.286;9.900;2022-09-28T15:10:25;9.60;;;3.17;;
47804;SDS011;33568;45.286;9.900;2022-09-28T15:13:05;9.25;;;3.58;;
47804;SDS011;33568;45.286;9.900;2022-09-28T15:15:44;13.27;;;3.30;;
47804;SDS011;33568;45.286;9.900;2022-09-28T15:18:18;10.05;;;3.40;;
47804;SDS011;33568;45.286;9.900;2022-09-28T15:20:56;12.27;;;3.55;;
47804;SDS011;33568;45.286;9.900;2022-09-28T15:23:24;13.43;;;3.72;;
47804;SDS011;33568;45.286;9.900;2022-09-28T15:25:59;11.88;;;3.75;;
47804;SDS011;33568;45.286;9.900;2022-09-28T15:28:27;14.10;;;3.47;;
47804;SDS011;33568;45.286;9.900;2022-09-28T15:31:00;15.02;;;4.35;;
47804;SDS011;33568;45.286;9.900;2022-09-28T15:33:28;10.52;;;4.22;;
47804;SDS011;33568;45.286;9.900;2022-09-28T15:36:22;10.35;;;3.83;;
47804;SDS011;33568;45.286;9.900;2022-09-28T15:41:42;10.45;;;3.80;;
47804;SDS011;33568;45.286;9.900;2022-09-28T15:44:34;22.73;;;4.30;;
47804;SDS011;33568;45.286;9.900;2022-09-28T15:47:07;14.48;;;4.28;;
47804;SDS011;33568;45.286;9.900;2022-09-28T15:52:31;13.38;;;4.40;;
47804;SDS011;33568;45.286;9.900;2022-09-28T15:58:03;13.13;;;5.03;;
47804;SDS011;33568;45.286;9.900;2022-09-28T16:00:33;11.13;;;4.63;;
47804;SDS011;33568;45.286;9.900;2022-09-28T16:05:42;12.65;;;4.00;;
47804;SDS011;33568;45.286;9.900;2022-09-28T16:13:59;13.68;;;5.35;;
47804;SDS011;33568;45.286;9.900;2022-09-28T16:19:22;13.60;;;6.45;;
47804;SDS011;33568;45.286;9.900;2022-09-28T16:21:53;8.48;;;5.07;;
47804;SDS011;33568;45.286;9.900;2022-09-28T16:37:45;10.80;;;6.45;;
47804;SDS011;33568;45.286;9.900;2022-09-28T16:40:19;7.18;;;3.63;;
47804;SDS011;33568;45.286;9.900;2022-09-28T16:42:45;9.13;;;3.15;;
47804;SDS011;33568;45.286;9.900;2022-09-28T16:45:15;16.60;;;4.95;;
47804;SDS011;33568;45.286;9.900;2022-09-28T16:47:48;11.52;;;4.85;;
47804;SDS011;33568;45.286;9.900;2022-09-28T16:50:19;10.07;;;6.32;;
47804;SDS011;33568;45.286;9.900;2022-09-28T16:52:47;14.48;;;3.97;;
47804;SDS011;33568;45.286;9.900;2022-09-28T16:55:39;9.07;;;4.40;;
47804;SDS011;33568;45.286;9.900;2022-09-28T16:58:06;12.88;;;4.68;;
47804;SDS011;33568;45.286;9.900;2022-09-28T17:00:33;7.28;;;3.97;;
47804;SDS011;33568;45.286;9.900;2022-09-28T17:02:59;13.25;;;3.20;;
47804;SDS011;33568;45.286;9.900;2022-09-28T17:05:25;7.70;;;4.13;;
47804;SDS011;33568;45.286;9.900;2022-09-28T17:07:59;11.57;;;4.85;;
47804;SDS011;33568;45.286;9.900;2022-09-28T17:13:12;13.30;;;5.38;;
47804;SDS011;33568;45.286;9.900;2022-09-28T17:15:40;11.15;;;4.47;;
47804;SDS011;33568;45.286;9.900;2022-09-28T17:18:09;11.45;;;5.05;;
47804;SDS011;33568;45.286;9.900;2022-09-28T17:20:37;11.27;;;4.72;;
47804;SDS011;33568;45.286;9.900;2022-09-28T17:23:07;9.13;;;3.30;;
47804;SDS011;33568;45.286;9.900;2022-09-28T17:25:34;9.00;;;2.97;;
47804;SDS011;33568;45.286;9.900;2022-09-28T17:28:01;7.32;;;3.03;;
47804;SDS011;33568;45.286;9.900;2022-09-28T17:30:28;8.80;;;3.67;;
47804;SDS011;33568;45.286;9.900;2022-09-28T17:32:54;6.90;;;3.08;;
47804;SDS011;33568;45.286;9.900;2022-09-28T17:35:21;9.38;;;3.33;;
47804;SDS011;33568;45.286;9.900;2022-09-28T17:37:48;12.07;;;4.45;;
47804;SDS011;33568;45.286;9.900;2022-09-28T17:40:18;5.43;;;2.90;;
47804;SDS011;33568;45.286;9.900;2022-09-28T17:42:50;8.32;;;3.15;;
47804;SDS011;33568;45.286;9.900;2022-09-28T17:45:19;6.75;;;3.45;;
47804;SDS011;33568;45.286;9.900;2022-09-28T17:47:47;5.57;;;2.65;;
47804;SDS011;33568;45.286;9.900;2022-09-28T17:52:46;12.27;;;3.78;;
47804;SDS011;33568;45.286;9.900;2022-09-28T17:55:21;11.00;;;3.67;;
47804;SDS011;33568;45.286;9.900;2022-09-28T17:57:49;10.15;;;4.05;;
47804;SDS011;33568;45.286;9.900;2022-09-28T18:00:16;9.40;;;3.72;;
47804;SDS011;33568;45.286;9.900;2022-09-28T18:02:43;9.48;;;3.75;;
47804;SDS011;33568;45.286;9.900;2022-09-28T18:05:10;4.35;;;2.97;;
47804;SDS011;33568;45.286;9.900;2022-09-28T18:07:40;5.63;;;2.88;;
47804;SDS011;33568;45.286;9.900;2022-09-28T18:10:14;8.15;;;3.85;;
47804;SDS011;33568;45.286;9.900;2022-09-28T18:15:10;6.68;;;3.25;;
47804;SDS011;33568;45.286;9.900;2022-09-28T18:17:37;8.80;;;3.40;;
47804;SDS011;33568;45.286;9.900;2022-09-28T18:20:05;5.50;;;2.95;;
47804;SDS011;33568;45.286;9.900;2022-09-28T18:22:32;10.63;;;3.03;;
47804;SDS011;33568;45.286;9.900;2022-09-28T18:24:59;4.72;;;2.83;;
47804;SDS011;33568;45.286;9.900;2022-09-28T18:27:26;9.00;;;2.88;;
47804;SDS011;33568;45.286;9.900;2022-09-28T18:29:55;6.47;;;2.80;;
47804;SDS011;33568;45.286;9.900;2022-09-28T18:32:22;6.18;;;2.80;;
47804;SDS011;33568;45.286;9.900;2022-09-28T18:34:49;9.05;;;2.80;;
47804;SDS011;33568;45.286;9.900;2022-09-28T18:37:15;5.80;;;2.92;;
47804;SDS011;33568;45.286;9.900;2022-09-28T18:39:41;7.38;;;2.85;;
47804;SDS011;33568;45.286;9.900;2022-09-28T18:42:08;3.78;;;2.50;;
47804;SDS011;33568;45.286;9.900;2022-09-28T18:44:35;4.22;;;3.00;;
47804;SDS011;33568;45.286;9.900;2022-09-28T18:47:01;7.00;;;2.45;;
47804;SDS011;33568;45.286;9.900;2022-09-28T18:49:29;5.35;;;2.72;;
47804;SDS011;33568;45.286;9.900;2022-09-28T18:51:56;6.20;;;2.40;;
47804;SDS011;33568;45.286;9.900;2022-09-28T18:54:22;7.13;;;3.08;;
47804;SDS011;33568;45.286;9.900;2022-09-28T18:56:49;5.55;;;2.83;;
47804;SDS011;33568;45.286;9.900;2022-09-28T18:59:20;7.28;;;2.90;;
47804;SDS011;33568;45.286;9.900;2022-09-28T19:01:46;6.65;;;2.90;;
47804;SDS011;33568;45.286;9.900;2022-09-28T19:04:12;5.22;;;2.65;;
47804;SDS011;33568;45.286;9.900;2022-09-28T19:06:39;7.18;;;2.70;;
47804;SDS011;33568;45.286;9.900;2022-09-28T19:09:07;6.00;;;2.72;;
47804;SDS011;33568;45.286;9.900;2022-09-28T19:11:33;8.13;;;3.17;;
47804;SDS011;33568;45.286;9.900;2022-09-28T19:14:00;6.05;;;2.30;;
47804;SDS011;33568;45.286;9.900;2022-09-28T19:16:28;10.77;;;2.88;;
47804;SDS011;33568;45.286;9.900;2022-09-28T19:18:56;7.00;;;2.40;;
47804;SDS011;33568;45.286;9.900;2022-09-28T19:21:23;4.82;;;2.53;;
47804;SDS011;33568;45.286;9.900;2022-09-28T19:23:50;7.20;;;2.83;;
47804;SDS011;33568;45.286;9.900;2022-09-28T19:26:19;6.97;;;2.53;;
47804;SDS011;33568;45.286;9.900;2022-09-28T19:28:48;4.93;;;2.60;;
47804;SDS011;33568;45.286;9.900;2022-09-28T19:31:15;6.18;;;2.70;;
47804;SDS011;33568;45.286;9.900;2022-09-28T19:33:41;5.57;;;2.75;;
47804;SDS011;33568;45.286;9.900;2022-09-28T19:36:13;5.95;;;2.45;;
47804;SDS011;33568;45.286;9.900;2022-09-28T19:38:43;6.82;;;2.80;;
47804;SDS011;33568;45.286;9.900;2022-09-28T19:41:14;5.85;;;2.80;;
47804;SDS011;33568;45.286;9.900;2022-09-28T19:44:03;10.15;;;3.65;;
47804;SDS011;33568;45.286;9.900;2022-09-28T19:46:33;5.78;;;2.63;;
47804;SDS011;33568;45.286;9.900;2022-09-28T19:49:02;7.15;;;2.80;;
47804;SDS011;33568;45.286;9.900;2022-09-28T19:51:29;6.93;;;3.20;;
47804;SDS011;33568;45.286;9.900;2022-09-28T19:53:56;7.85;;;3.78;;
47804;SDS011;33568;45.286;9.900;2022-09-28T19:56:23;7.35;;;2.60;;
47804;SDS011;33568;45.286;9.900;2022-09-28T19:58:50;6.95;;;2.60;;
47804;SDS011;33568;45.286;9.900;2022-09-28T20:01:16;7.35;;;2.92;;
47804;SDS011;33568;45.286;9.900;2022-09-28T20:03:43;9.68;;;2.85;;